Time;durP1;ratioP1;P1;durP2;ratioP2;P2;SDS_P1;SDS_P2;PMS_P1;PMS_P2;Temp;Humidity;BMP_temperature;BMP_pressure;BME280_temperature;BME280_humidity;BME280_pressure;Samples;Min_cycle;Max_cycle;Signal;HPM_P1;HPM_P2
2022/12/13 00:02:46;;;;;;;18.50;9.60;;;;;;;-0.15;84.75;99247.50;126285;1287;107470;-73
2022/12/13 00:05:49;;;;;;;15.50;9.20;;;;;;;-0.15;84.46;99257.30;126288;1284;99774;-75
2022/12/13 00:08:52;;;;;;;16.40;10.00;;;;;;;-0.17;84.71;99250.27;126353;1284;100410;-75
2022/12/13 00:11:55;;;;;;;20.80;10.60;;;;;;;-0.13;84.52;99250.02;126406;1294;99382;-73
2022/12/13 00:14:58;;;;;;;15.90;9.40;;;;;;;-0.14;84.53;99249.55;126346;1300;99813;-76
2022/12/13 00:18:00;;;;;;;15.00;9.40;;;;;;;-0.15;84.53;99248.21;126302;1284;99679;-78
2022/12/13 00:21:06;;;;;;;17.30;9.90;;;;;;;-0.17;84.51;99245.27;126566;1284;99366;-76
2022/12/13 00:24:09;;;;;;;16.50;9.50;;;;;;;-0.16;84.55;99251.11;126402;1283;107529;-73
2022/12/13 00:27:11;;;;;;;18.10;10.60;;;;;;;-0.21;84.48;99257.89;126328;1284;99849;-73
2022/12/13 00:30:14;;;;;;;17.00;9.80;;;;;;;-0.20;84.63;99262.73;126096;1281;99562;-73
2022/12/13 00:33:16;;;;;;;17.60;9.50;;;;;;;-0.16;84.46;99262.98;126313;1290;102596;-74
2022/12/13 00:36:20;;;;;;;14.90;9.70;;;;;;;-0.09;84.48;99266.67;126253;1285;99443;-72
2022/12/13 00:39:22;;;;;;;17.00;9.80;;;;;;;-0.05;84.43;99271.25;126459;1284;100444;-74
2022/12/13 00:42:25;;;;;;;16.30;9.60;;;;;;;-0.01;84.30;99268.02;126312;1292;99591;-71
2022/12/13 00:45:28;;;;;;;14.40;9.00;;;;;;;-0.03;84.09;99268.67;126383;1280;99434;-74
2022/12/13 00:48:30;;;;;;;25.30;14.90;;;;;;;-0.06;84.21;99268.70;126350;1292;99441;-71
2022/12/13 00:51:34;;;;;;;20.30;11.00;;;;;;;-0.03;84.36;99273.55;126282;1285;99485;-74
2022/12/13 00:54:36;;;;;;;18.60;10.00;;;;;;;-0.01;84.27;99277.60;126169;1293;99368;-73
2022/12/13 00:57:39;;;;;;;20.10;10.20;;;;;;;-0.01;84.11;99281.31;126331;1278;99322;-75
2022/12/13 01:00:41;;;;;;;22.00;11.30;;;;;;;-0.07;83.97;99287.33;126390;1285;99367;-76
2022/12/13 01:03:45;;;;;;;29.60;12.50;;;;;;;-0.10;84.09;99293.67;126351;1281;100531;-76
2022/12/13 01:06:50;;;;;;;17.70;9.20;;;;;;;-0.07;84.33;99294.13;126323;1283;99485;-75
2022/12/13 01:09:52;;;;;;;42.60;15.40;;;;;;;0.00;84.03;99286.27;126338;1284;100404;-76
2022/12/13 01:12:55;;;;;;;24.50;11.20;;;;;;;0.08;83.97;99276.31;126302;1284;100531;-75
2022/12/13 01:15:57;;;;;;;20.40;10.70;;;;;;;0.14;83.82;99279.73;126380;1284;99381;-75
2022/12/13 01:19:00;;;;;;;20.40;10.60;;;;;;;0.15;83.66;99283.70;126383;1288;99344;-74
2022/12/13 01:22:05;;;;;;;19.20;10.60;;;;;;;0.15;83.88;99287.33;126310;1295;99399;-74
2022/12/13 01:25:08;;;;;;;16.10;10.40;;;;;;;0.11;83.54;99291.33;125368;1284;1367859;-74
2022/12/13 01:28:11;;;;;;;19.20;10.90;;;;;;;0.06;83.84;99296.17;126259;1285;99349;-75
2022/12/13 01:31:16;;;;;;;16.60;10.80;;;;;;;0.06;83.57;99303.91;126282;1277;99968;-76
2022/12/13 01:34:21;;;;;;;20.10;11.20;;;;;;;-0.02;83.51;99303.60;126321;1286;99464;-75
2022/12/13 01:37:23;;;;;;;16.70;10.60;;;;;;;-0.06;83.80;99299.70;126258;1285;100529;-74
2022/12/13 01:40:26;;;;;;;15.40;9.80;;;;;;;-0.04;83.87;99298.99;126344;1278;100564;-76
2022/12/13 01:43:46;;;;;;;17.80;10.70;;;;;;;-0.01;83.60;99291.27;126334;1284;100492;-74
2022/12/13 01:46:48;;;;;;;16.70;10.70;;;;;;;-0.03;83.41;99289.29;126218;1290;99349;-70
2022/12/13 01:49:53;;;;;;;15.60;10.60;;;;;;;-0.03;83.51;99288.24;126246;1285;99336;-74
2022/12/13 01:52:57;;;;;;;17.50;10.30;;;;;;;-0.03;83.41;99294.20;126371;1281;100369;-73
2022/12/13 01:56:05;;;;;;;16.80;10.20;;;;;;;-0.06;83.39;99301.05;126226;1285;100511;-74
2022/12/13 01:59:10;;;;;;;16.30;10.40;;;;;;;-0.11;83.13;99296.85;126428;1285;99448;-73
2022/12/13 02:02:14;;;;;;;19.20;10.80;;;;;;;-0.13;83.41;99300.89;126343;1293;99891;-74
2022/12/13 02:05:24;;;;;;;17.40;11.00;;;;;;;-0.12;83.44;99304.30;126294;1286;99341;-74
2022/12/13 02:08:28;;;;;;;20.60;11.30;;;;;;;-0.16;83.56;99306.89;126428;1285;100507;-71
2022/12/13 02:11:32;;;;;;;19.90;11.00;;;;;;;-0.17;83.49;99305.70;126224;1284;99386;-74
2022/12/13 02:14:36;;;;;;;16.60;9.70;;;;;;;-0.14;83.59;99307.58;126252;1284;99328;-73
2022/12/13 02:18:01;;;;;;;16.20;10.50;;;;;;;-0.10;83.23;99312.39;126313;1292;99771;-73
2022/12/13 02:21:15;;;;;;;16.90;10.10;;;;;;;-0.08;83.06;99315.88;126288;1294;99412;-74
2022/12/13 02:24:40;;;;;;;17.90;10.30;;;;;;;-0.03;83.13;99320.45;126254;1294;99353;-72
2022/12/13 02:28:01;;;;;;;17.80;10.70;;;;;;;-0.03;82.95;99321.30;126375;1277;99437;-75
2022/12/13 02:31:08;;;;;;;16.70;10.50;;;;;;;-0.06;82.72;99320.09;126280;1281;99389;-74
2022/12/13 02:34:17;;;;;;;16.00;10.60;;;;;;;-0.13;82.76;99318.73;126403;1286;100582;-75
2022/12/13 02:37:26;;;;;;;16.80;10.30;;;;;;;-0.13;83.02;99324.09;126448;1294;99360;-74
2022/12/13 02:40:34;;;;;;;16.10;10.30;;;;;;;-0.15;83.07;99324.98;126500;1294;99690;-74
2022/12/13 02:43:44;;;;;;;19.30;11.50;;;;;;;-0.20;82.73;99325.81;126490;1286;99426;-75
2022/12/13 02:46:51;;;;;;;18.50;11.20;;;;;;;-0.24;82.53;99333.10;126468;1284;102839;-75
2022/12/13 02:49:59;;;;;;;16.80;9.90;;;;;;;-0.27;82.84;99332.27;126443;1294;99337;-74
2022/12/13 02:53:04;;;;;;;19.30;11.00;;;;;;;-0.25;82.82;99330.52;126481;1283;100515;-75
2022/12/13 02:56:06;;;;;;;21.90;12.70;;;;;;;-0.27;82.46;99334.36;126386;1284;100381;-75
2022/12/13 02:59:13;;;;;;;20.30;12.00;;;;;;;-0.31;82.81;99333.77;126304;1284;99336;-74
2022/12/13 03:02:19;;;;;;;20.20;11.60;;;;;;;-0.32;82.76;99334.36;126207;1301;99495;-74
2022/12/13 03:09:06;;;;;;;13.00;8.60;;;;;;;-0.37;82.35;99349.02;126207;1294;99415;-72
2022/12/13 03:15:52;;;;;;;19.20;11.60;;;;;;;-0.53;82.28;99350.47;126298;1284;99706;-74
2022/12/13 03:18:58;;;;;;;21.30;10.80;;;;;;;-0.57;82.38;99354.94;126223;1300;100529;-74
2022/12/13 03:22:05;;;;;;;17.20;10.00;;;;;;;-0.54;82.13;99354.59;126396;1283;101097;-74
2022/12/13 03:25:09;;;;;;;17.80;10.50;;;;;;;-0.52;82.15;99351.80;126343;1283;99365;-73
2022/12/13 03:28:12;;;;;;;16.10;9.70;;;;;;;-0.47;82.05;99350.08;126337;1290;100505;-74
2022/12/13 03:31:15;;;;;;;18.00;10.60;;;;;;;-0.49;81.77;99349.46;126298;1284;99801;-72
2022/12/13 03:34:17;;;;;;;15.50;9.90;;;;;;;-0.53;81.92;99350.44;126311;1284;99432;-74
2022/12/13 03:37:20;;;;;;;15.80;10.10;;;;;;;-0.56;82.26;99350.11;126252;1298;99356;-73
2022/12/13 03:40:22;;;;;;;15.00;9.80;;;;;;;-0.58;82.32;99347.83;126392;1284;99360;-71
2022/12/13 03:43:27;;;;;;;15.00;9.60;;;;;;;-0.69;82.10;99349.85;126301;1285;100494;-78
2022/12/13 03:46:30;;;;;;;14.70;9.20;;;;;;;-0.79;83.10;99351.34;126242;1278;99349;-77
2022/12/13 03:49:33;;;;;;;17.70;10.30;;;;;;;-0.91;82.99;99351.98;126305;1292;100397;-74
2022/12/13 03:52:35;;;;;;;15.00;9.60;;;;;;;-0.96;83.26;99355.25;126244;1276;99398;-73
2022/12/13 03:55:38;;;;;;;13.20;8.40;;;;;;;-0.95;82.72;99355.22;126258;1285;99439;-73
2022/12/13 03:58:41;;;;;;;13.00;7.90;;;;;;;-0.92;82.17;99354.66;126443;1284;100949;-74
2022/12/13 04:01:43;;;;;;;14.70;8.80;;;;;;;-0.86;82.00;99356.57;126359;1283;99346;-75
2022/12/13 04:04:46;;;;;;;12.70;8.50;;;;;;;-0.83;82.17;99359.85;126368;1284;99377;-75
2022/12/13 04:07:49;;;;;;;13.80;8.90;;;;;;;-0.77;82.33;99361.34;126298;1293;100499;-75
2022/12/13 04:10:51;;;;;;;16.10;9.70;;;;;;;-0.73;81.88;99364.23;126288;1293;99363;-74
2022/12/13 04:13:54;;;;;;;14.10;9.40;;;;;;;-0.75;81.84;99362.42;126279;1287;99442;-74
2022/12/13 04:16:57;;;;;;;13.10;8.40;;;;;;;-0.79;81.93;99361.98;126304;1277;99432;-75
2022/12/13 04:19:59;;;;;;;14.70;9.20;;;;;;;-0.77;81.91;99363.13;126306;1276;99424;-72
2022/12/13 04:23:02;;;;;;;18.90;10.10;;;;;;;-0.84;81.68;99370.54;126296;1287;99461;-75
2022/12/13 04:26:05;;;;;;;16.90;9.50;;;;;;;-0.88;81.65;99367.85;126245;1277;99448;-75
2022/12/13 04:29:08;;;;;;;14.00;8.60;;;;;;;-0.88;81.90;99371.53;126315;1282;100418;-74
2022/12/13 04:32:10;;;;;;;13.20;8.50;;;;;;;-0.87;81.67;99373.57;126299;1290;99659;-75
2022/12/13 04:35:13;;;;;;;15.20;8.50;;;;;;;-0.96;82.16;99376.04;126437;1285;99680;-74
2022/12/13 04:38:16;;;;;;;15.30;7.80;;;;;;;-1.05;83.01;99376.12;126265;1301;112557;-74
2022/12/13 04:41:19;;;;;;;30.70;18.20;;;;;;;-1.13;82.34;99373.34;126351;1278;99463;-75
2022/12/13 04:44:22;;;;;;;28.70;16.70;;;;;;;-1.17;82.06;99369.23;126233;1293;112455;-71
2022/12/13 04:47:24;;;;;;;34.60;18.20;;;;;;;-1.19;82.07;99373.71;126241;1301;99799;-75
2022/12/13 04:50:27;;;;;;;112.60;53.10;;;;;;;-1.23;82.02;99375.19;126526;1286;100527;-74
2022/12/13 04:53:30;;;;;;;61.70;31.20;;;;;;;-1.35;82.52;99378.98;126423;1280;99432;-74
2022/12/13 04:56:33;;;;;;;22.90;12.40;;;;;;;-1.36;82.78;99381.13;126579;1279;99743;-74
2022/12/13 04:59:36;;;;;;;70.60;38.80;;;;;;;-1.32;83.12;99382.23;126391;1284;100604;-74
2022/12/13 05:02:40;;;;;;;18.00;10.60;;;;;;;-1.31;83.05;99385.52;126539;1285;99352;-75
2022/12/13 05:05:43;;;;;;;17.00;9.60;;;;;;;-1.26;82.81;99384.48;126494;1286;100499;-75
2022/12/13 05:08:45;;;;;;;16.50;8.80;;;;;;;-1.19;83.03;99387.30;126352;1286;100604;-75
2022/12/13 05:11:48;;;;;;;63.20;23.50;;;;;;;-1.22;82.24;99387.50;126356;1285;99334;-73
2022/12/13 05:14:51;;;;;;;417.00;219.10;;;;;;;-1.28;82.10;99395.41;126293;1284;99488;-73
2022/12/13 05:17:53;;;;;;;64.10;33.90;;;;;;;-1.26;82.27;99397.18;126394;1285;99328;-74
2022/12/13 05:20:56;;;;;;;30.90;16.60;;;;;;;-1.30;81.92;99396.27;126298;1284;100490;-75
2022/12/13 05:23:58;;;;;;;28.10;16.00;;;;;;;-1.43;81.36;99400.55;126472;1278;99521;-76
2022/12/13 05:27:01;;;;;;;20.70;12.10;;;;;;;-1.51;81.62;99397.42;126336;1285;109585;-75
2022/12/13 05:30:05;;;;;;;19.80;10.20;;;;;;;-1.53;81.89;99406.64;126187;1283;99925;-75
2022/12/13 05:33:08;;;;;;;14.70;8.90;;;;;;;-1.51;81.65;99406.66;126303;1284;107803;-73
2022/12/13 05:36:11;;;;;;;14.10;8.90;;;;;;;-1.46;81.59;99414.38;126305;1284;107547;-75
2022/12/13 05:39:14;;;;;;;14.10;7.90;;;;;;;-1.45;80.97;99413.27;126292;1287;99367;-75
2022/12/13 05:42:16;;;;;;;13.00;8.00;;;;;;;-1.40;81.56;99415.89;126466;1293;99678;-74
2022/12/13 05:45:20;;;;;;;55.90;29.10;;;;;;;-1.31;81.39;99412.72;126335;1284;99340;-73
2022/12/13 05:48:23;;;;;;;119.10;54.40;;;;;;;-1.26;81.50;99409.75;126345;1285;99418;-74
2022/12/13 05:51:26;;;;;;;37.20;19.00;;;;;;;-1.25;80.61;99411.80;126408;1285;107514;-74
2022/12/13 05:54:28;;;;;;;19.20;10.40;;;;;;;-1.35;80.74;99418.18;126326;1285;99396;-74
2022/12/13 05:57:31;;;;;;;16.70;9.90;;;;;;;-1.35;80.86;99417.87;126454;1283;99380;-74
2022/12/13 06:00:34;;;;;;;20.70;13.80;;;;;;;-1.33;80.97;99418.09;126289;1287;100414;-74
2022/12/13 06:03:37;;;;;;;17.50;11.40;;;;;;;-1.35;80.72;99428.15;126234;1287;99370;-73
2022/12/13 06:06:39;;;;;;;12.50;8.10;;;;;;;-1.41;80.29;99432.22;126359;1293;99390;-74
2022/12/13 06:09:42;;;;;;;13.80;8.70;;;;;;;-1.50;80.35;99432.91;126306;1284;99439;-74
2022/12/13 06:12:44;;;;;;;17.20;9.70;;;;;;;-1.61;80.39;99438.66;126415;1285;99421;-75
2022/12/13 06:15:47;;;;;;;15.00;9.20;;;;;;;-1.62;80.71;99446.42;126273;1279;100399;-75
2022/12/13 06:18:49;;;;;;;14.10;8.00;;;;;;;-1.65;80.43;99446.62;126372;1287;100401;-75
2022/12/13 06:21:54;;;;;;;16.00;9.20;;;;;;;-1.63;80.68;99449.20;126424;1284;100506;-72
2022/12/13 06:24:56;;;;;;;11.80;7.90;;;;;;;-1.57;80.06;99456.55;126318;1301;99367;-74
2022/12/13 06:27:59;;;;;;;12.60;7.60;;;;;;;-1.61;79.67;99455.75;126380;1285;100492;-72
2022/12/13 06:31:03;;;;;;;13.40;7.60;;;;;;;-1.65;79.53;99455.33;126225;1280;99356;-74
2022/12/13 06:34:06;;;;;;;12.30;7.80;;;;;;;-1.69;79.68;99455.18;126391;1285;99375;-74
2022/12/13 06:37:12;;;;;;;12.50;7.60;;;;;;;-1.66;79.88;99458.52;126371;1285;99353;-74
2022/12/13 06:40:15;;;;;;;18.70;11.10;;;;;;;-1.68;79.84;99462.64;126631;1292;99338;-74
2022/12/13 06:43:18;;;;;;;43.60;23.30;;;;;;;-1.66;79.84;99466.01;126578;1284;100497;-74
2022/12/13 06:46:20;;;;;;;37.70;19.00;;;;;;;-1.63;79.64;99460.27;126326;1277;99362;-74
2022/12/13 06:49:23;;;;;;;42.70;22.30;;;;;;;-1.62;79.81;99463.15;126334;1285;99380;-74
2022/12/13 06:52:25;;;;;;;44.80;21.80;;;;;;;-1.62;79.51;99462.27;126266;1285;99462;-73
2022/12/13 06:55:28;;;;;;;53.20;26.10;;;;;;;-1.61;79.87;99470.59;126193;1284;99364;-74
2022/12/13 06:58:31;;;;;;;252.60;85.70;;;;;;;-1.61;79.67;99472.68;126230;1293;100499;-75
2022/12/13 07:01:34;;;;;;;118.70;44.70;;;;;;;-1.59;79.95;99483.17;126321;1284;100507;-75
2022/12/13 07:04:37;;;;;;;123.90;48.40;;;;;;;-1.52;79.99;99485.21;126188;1279;99362;-75
2022/12/13 07:07:39;;;;;;;104.10;42.00;;;;;;;-1.44;79.91;99485.91;126606;1277;99342;-74
2022/12/13 07:10:42;;;;;;;105.10;42.70;;;;;;;-1.37;79.71;99490.05;126579;1285;99372;-74
2022/12/13 07:13:45;;;;;;;78.10;33.50;;;;;;;-1.29;79.63;99496.18;126258;1292;100537;-71
2022/12/13 07:16:47;;;;;;;23.20;11.40;;;;;;;-1.28;78.87;99505.00;126342;1287;99366;-74
2022/12/13 07:19:50;;;;;;;124.30;48.30;;;;;;;-1.33;78.86;99507.23;126746;1277;99362;-72
2022/12/13 07:22:55;;;;;;;116.10;47.90;;;;;;;-1.31;78.71;99505.20;127077;1285;99340;-74
2022/12/13 07:25:57;;;;;;;42.60;21.20;;;;;;;-1.33;79.25;99507.77;126331;1286;100608;-73
2022/12/13 07:29:02;;;;;;;28.30;15.50;;;;;;;-1.37;78.43;99516.72;126350;1293;100599;-73
2022/12/13 07:32:05;;;;;;;34.20;20.70;;;;;;;-1.46;78.53;99522.89;126591;1284;99476;-73
2022/12/13 07:35:08;;;;;;;40.80;19.80;;;;;;;-1.53;78.27;99533.42;126290;1283;99416;-71
2022/12/13 07:38:11;;;;;;;85.80;34.10;;;;;;;-1.59;78.73;99532.34;126349;1287;99357;-73
2022/12/13 07:41:14;;;;;;;188.80;75.50;;;;;;;-1.55;78.70;99532.81;126438;1284;99400;-75
2022/12/13 07:44:17;;;;;;;172.40;77.50;;;;;;;-1.51;78.76;99533.32;126265;1280;99360;-72
2022/12/13 07:47:19;;;;;;;48.60;23.30;;;;;;;-1.48;78.39;99535.02;127249;1285;99354;-72
2022/12/13 07:50:22;;;;;;;45.10;23.70;;;;;;;-1.55;78.16;99536.70;127319;1285;100476;-73
2022/12/13 07:53:25;;;;;;;61.30;29.70;;;;;;;-1.54;78.32;99540.63;126536;1281;99366;-73
2022/12/13 07:56:28;;;;;;;76.30;36.80;;;;;;;-1.49;78.47;99546.44;126413;1284;100030;-73
2022/12/13 07:59:31;;;;;;;55.20;28.60;;;;;;;-1.45;78.53;99547.72;126274;1293;99371;-73
2022/12/13 08:02:33;;;;;;;45.70;23.70;;;;;;;-1.37;78.76;99553.19;126365;1294;99849;-73
2022/12/13 08:05:37;;;;;;;67.20;29.70;;;;;;;-1.27;78.19;99551.37;126249;1284;100448;-72
2022/12/13 08:08:40;;;;;;;370.80;125.80;;;;;;;-1.18;78.25;99557.27;126373;1284;99425;-73
2022/12/13 08:11:42;;;;;;;184.40;71.10;;;;;;;-1.11;78.22;99556.30;126318;1277;101076;-73
2022/12/13 08:14:45;;;;;;;62.10;31.00;;;;;;;-1.00;78.31;99557.87;126341;1285;99466;-74
2022/12/13 08:17:48;;;;;;;36.10;16.00;;;;;;;-0.90;78.07;99559.00;126310;1284;99440;-73
2022/12/13 08:20:50;;;;;;;24.00;12.10;;;;;;;-0.88;77.39;99559.21;126531;1285;112642;-75
2022/12/13 08:23:53;;;;;;;20.40;11.80;;;;;;;-0.89;77.69;99562.54;126375;1292;99446;-75
2022/12/13 08:26:59;;;;;;;22.70;13.90;;;;;;;-0.83;77.86;99561.64;126379;1280;99470;-72
2022/12/13 08:30:02;;;;;;;140.60;71.30;;;;;;;-0.73;77.86;99566.29;126558;1284;112594;-75
2022/12/13 08:33:05;;;;;;;55.90;27.60;;;;;;;-0.71;77.20;99571.02;126785;1286;99441;-75
2022/12/13 08:36:10;;;;;;;31.40;16.70;;;;;;;-0.70;77.51;99572.52;126668;1291;99416;-74
2022/12/13 08:39:13;;;;;;;18.30;10.90;;;;;;;-0.67;77.34;99570.77;126562;1284;112641;-74
2022/12/13 08:42:17;;;;;;;13.90;8.30;;;;;;;-0.64;76.91;99570.77;126306;1294;99450;-74
2022/12/13 08:45:20;;;;;;;15.30;8.30;;;;;;;-0.65;76.72;99574.99;126374;1284;112633;-74
2022/12/13 08:48:22;;;;;;;11.80;7.90;;;;;;;-0.63;76.91;99574.91;126352;1288;99323;-74
2022/12/13 08:51:25;;;;;;;14.60;9.80;;;;;;;-0.61;76.63;99582.83;126353;1282;99336;-74
2022/12/13 08:54:28;;;;;;;13.20;9.00;;;;;;;-0.61;76.84;99584.39;126384;1285;99367;-74
2022/12/13 08:57:31;;;;;;;17.60;11.20;;;;;;;-0.61;76.48;99586.63;126281;1286;99368;-74
2022/12/13 09:00:34;;;;;;;31.80;16.80;;;;;;;-0.63;76.94;99585.88;126362;1284;100388;-75
2022/12/13 09:03:37;;;;;;;69.60;33.70;;;;;;;-0.58;77.06;99585.95;126277;1277;100529;-71
2022/12/13 09:06:42;;;;;;;70.90;38.90;;;;;;;-0.56;77.15;99588.07;126345;1293;100490;-74
2022/12/13 09:09:44;;;;;;;21.70;11.80;;;;;;;-0.58;76.85;99593.27;126338;1284;113787;-77
2022/12/13 09:12:47;;;;;;;29.40;18.30;;;;;;;-0.54;77.13;99596.70;126339;1285;99352;-77
2022/12/13 09:15:50;;;;;;;25.90;12.80;;;;;;;-0.51;76.54;99594.19;126301;1294;99326;-74
2022/12/13 09:18:53;;;;;;;16.90;9.00;;;;;;;-0.49;76.75;99594.77;126303;1285;99390;-74
2022/12/13 09:21:56;;;;;;;17.30;8.90;;;;;;;-0.45;76.50;99594.16;126322;1285;99346;-75
2022/12/13 09:24:58;;;;;;;15.20;9.10;;;;;;;-0.46;76.38;99591.80;126344;1279;99366;-76
2022/12/13 09:28:01;;;;;;;11.40;7.60;;;;;;;-0.47;76.44;99595.19;126363;1286;100495;-76
2022/12/13 09:31:07;;;;;;;10.90;7.00;;;;;;;-0.51;75.91;99593.89;126219;1287;99418;-75
2022/12/13 09:34:10;;;;;;;11.20;6.80;;;;;;;-0.52;76.21;99594.08;126341;1287;112605;-76
2022/12/13 09:37:13;;;;;;;89.20;49.30;;;;;;;-0.49;76.00;99598.77;126498;1291;99876;-75
2022/12/13 09:40:19;;;;;;;181.00;86.80;;;;;;;-0.48;75.11;99598.58;126361;1285;100493;-74
2022/12/13 09:43:24;;;;;;;125.30;62.90;;;;;;;-0.45;75.55;99603.45;126452;1290;112458;-76
2022/12/13 09:46:31;;;;;;;65.30;38.00;;;;;;;-0.37;75.86;99604.67;126391;1284;112565;-74
2022/12/13 09:49:38;;;;;;;22.60;14.30;;;;;;;-0.34;75.49;99601.84;126560;1286;112643;-75
2022/12/13 09:52:43;;;;;;;19.50;12.40;;;;;;;-0.38;75.50;99602.29;126321;1289;113007;-75
2022/12/13 09:55:47;;;;;;;14.50;8.80;;;;;;;-0.43;75.21;99600.14;126362;1285;113156;-75
2022/12/13 09:58:52;;;;;;;21.80;14.30;;;;;;;-0.44;75.37;99600.55;126435;1294;112466;-76
2022/12/13 10:01:56;;;;;;;15.40;9.30;;;;;;;-0.47;74.71;99596.90;126371;1297;112580;-75
2022/12/13 10:05:13;;;;;;;25.60;18.50;;;;;;;-0.49;75.06;99592.66;126328;1287;112749;-76
2022/12/13 10:08:22;;;;;;;28.00;14.20;;;;;;;-0.41;74.83;99597.77;126392;1286;112128;-76
2022/12/13 10:11:25;;;;;;;15.40;9.30;;;;;;;-0.35;75.40;99597.60;126473;1294;112517;-76
2022/12/13 10:14:35;;;;;;;37.00;21.50;;;;;;;-0.29;75.04;99597.53;126471;1284;112525;-75
2022/12/13 10:17:40;;;;;;;132.80;61.40;;;;;;;-0.28;74.91;99596.41;126264;1277;112503;-75
2022/12/13 10:20:43;;;;;;;94.00;44.10;;;;;;;-0.20;75.06;99593.07;126551;1283;112383;-75
2022/12/13 10:23:46;;;;;;;237.50;110.20;;;;;;;-0.11;75.04;99593.58;126568;1284;113725;-74
2022/12/13 10:26:49;;;;;;;305.20;147.20;;;;;;;-0.02;74.59;99584.35;126554;1294;99695;-74
2022/12/13 10:30:05;;;;;;;49.00;22.80;;;;;;;0.05;74.67;99582.56;126474;1294;99392;-75
2022/12/13 10:33:21;;;;;;;29.30;14.40;;;;;;;0.03;74.40;99581.97;126402;1293;112371;-73
2022/12/13 10:36:33;;;;;;;19.20;11.30;;;;;;;0.07;74.79;99586.59;126273;1292;112339;-73
2022/12/13 10:39:38;;;;;;;25.90;16.00;;;;;;;0.09;73.79;99587.17;126406;1287;112152;-75
2022/12/13 10:42:41;;;;;;;168.70;85.70;;;;;;;-0.02;73.84;99588.72;126535;1284;111685;-74
2022/12/13 10:45:57;;;;;;;141.60;64.00;;;;;;;-0.03;73.98;99584.98;126617;1293;99982;-73
2022/12/13 10:49:00;;;;;;;183.70;85.40;;;;;;;-0.01;73.60;99591.46;126648;1277;112647;-73
2022/12/13 10:52:04;;;;;;;137.70;62.20;;;;;;;-0.06;73.73;99588.13;126303;1292;112471;-74
2022/12/13 10:55:25;;;;;;;60.90;28.90;;;;;;;-0.05;73.54;99590.36;126379;1290;112763;-73
2022/12/13 10:58:37;;;;;;;68.10;36.60;;;;;;;0.01;74.14;99586.99;126500;1294;112663;-76
2022/12/13 11:01:39;;;;;;;96.40;52.30;;;;;;;0.11;74.27;99582.81;126549;1284;112462;-73
2022/12/13 11:04:42;;;;;;;90.00;47.40;;;;;;;0.20;73.71;99585.66;126395;1283;99854;-72
2022/12/13 11:07:46;;;;;;;93.00;48.80;;;;;;;0.26;73.51;99587.21;126403;1292;99924;-73
2022/12/13 11:10:57;;;;;;;178.10;84.10;;;;;;;0.35;73.63;99586.09;126571;1285;101573;-73
2022/12/13 11:14:02;;;;;;;73.00;36.60;;;;;;;0.47;73.24;99582.64;126337;1284;113759;-74
2022/12/13 11:17:13;;;;;;;47.50;25.50;;;;;;;0.47;73.19;99582.25;126271;1283;112467;-74
2022/12/13 11:20:20;;;;;;;27.40;15.80;;;;;;;0.53;73.18;99583.96;126512;1291;112535;-73
2022/12/13 11:23:30;;;;;;;24.50;15.50;;;;;;;0.59;73.38;99580.24;126274;1281;112499;-71
2022/12/13 11:26:37;;;;;;;23.60;16.00;;;;;;;0.68;72.99;99582.44;126220;1283;112497;-73
2022/12/13 11:30:02;;;;;;;20.00;12.50;;;;;;;0.64;72.62;99580.27;126296;1285;112410;-74
2022/12/13 11:33:25;;;;;;;18.90;10.80;;;;;;;0.64;73.28;99579.26;126452;1287;113989;-73
2022/12/13 11:36:37;;;;;;;24.00;15.30;;;;;;;0.65;72.92;99583.33;126561;1292;112465;-73
2022/12/13 11:39:49;;;;;;;28.80;18.10;;;;;;;0.57;73.15;99581.08;126536;1290;112523;-72
2022/12/13 11:42:54;;;;;;;23.90;15.00;;;;;;;0.54;73.09;99585.48;126518;1285;112993;-73
2022/12/13 11:46:01;;;;;;;18.90;11.80;;;;;;;0.46;72.72;99588.33;126608;1283;112585;-73
2022/12/13 11:49:16;;;;;;;18.10;10.80;;;;;;;0.37;73.18;99590.65;126405;1277;112669;-74
2022/12/13 11:52:24;;;;;;;20.80;12.80;;;;;;;0.33;73.06;99595.15;126246;1284;112570;-74
2022/12/13 11:55:35;;;;;;;20.40;12.30;;;;;;;0.35;73.10;99597.82;126299;1295;112586;-72
2022/12/13 11:58:47;;;;;;;24.50;13.00;;;;;;;0.27;72.72;99592.76;126453;1285;113061;-73
2022/12/13 12:01:55;;;;;;;23.30;15.60;;;;;;;0.24;73.17;99597.04;126315;1292;112271;-73
2022/12/13 12:05:00;;;;;;;29.60;17.30;;;;;;;0.23;72.74;99601.08;126448;1285;112514;-73
2022/12/13 12:08:17;;;;;;;29.20;16.80;;;;;;;0.21;72.91;99604.72;126432;1285;112535;-72
2022/12/13 12:11:27;;;;;;;79.80;50.80;;;;;;;0.16;72.98;99605.88;126250;1305;112553;-73
2022/12/13 12:14:40;;;;;;;26.40;16.70;;;;;;;0.12;72.61;99606.50;126592;1290;112520;-72
2022/12/13 12:17:43;;;;;;;23.10;13.30;;;;;;;0.04;73.09;99609.89;126281;1292;112583;-72
2022/12/13 12:20:59;;;;;;;24.00;13.90;;;;;;;-0.06;73.25;99617.52;126249;1290;99344;-72
2022/12/13 12:24:13;;;;;;;17.80;11.20;;;;;;;-0.11;73.49;99625.71;126239;1290;113690;-72
2022/12/13 12:27:27;;;;;;;47.00;27.30;;;;;;;-0.08;73.73;99624.27;126368;1290;112668;-74
2022/12/13 12:30:39;;;;;;;137.50;73.70;;;;;;;-0.04;73.61;99615.99;126541;1294;112323;-73
2022/12/13 12:33:50;;;;;;;54.90;29.70;;;;;;;-0.04;73.53;99620.54;126443;1286;113195;-73
2022/12/13 12:37:05;;;;;;;48.10;24.60;;;;;;;-0.06;73.31;99625.39;126457;1291;112552;-74
2022/12/13 12:40:31;;;;;;;76.60;35.60;;;;;;;-0.08;73.47;99623.75;126385;1292;112427;-73
2022/12/13 12:43:38;;;;;;;52.70;35.00;;;;;;;-0.12;73.38;99629.06;126379;1290;112989;-74
2022/12/13 12:46:51;;;;;;;26.80;17.50;;;;;;;-0.23;73.31;99626.33;126351;1292;112381;-71
2022/12/13 12:50:12;;;;;;;29.00;17.20;;;;;;;-0.28;73.24;99632.75;126288;1292;111597;-73
2022/12/13 12:53:34;;;;;;;43.30;26.00;;;;;;;-0.30;73.41;99638.17;126395;1286;112721;-74
2022/12/13 12:56:44;;;;;;;35.80;20.60;;;;;;;-0.29;73.61;99640.00;126394;1292;111651;-73
2022/12/13 13:00:01;;;;;;;23.80;14.20;;;;;;;-0.23;73.61;99639.77;126458;1284;113614;-74
2022/12/13 13:03:13;;;;;;;21.80;13.90;;;;;;;-0.21;73.66;99638.06;126402;1292;112441;-74
2022/12/13 13:06:21;;;;;;;22.80;14.00;;;;;;;-0.17;73.51;99643.73;126299;1290;112325;-77
2022/12/13 13:09:24;;;;;;;37.40;22.60;;;;;;;-0.12;73.69;99648.16;126244;1290;112439;-73
2022/12/13 13:12:28;;;;;;;30.60;15.10;;;;;;;-0.04;73.61;99653.23;126397;1290;112619;-73
2022/12/13 13:15:56;;;;;;;17.80;10.40;;;;;;;0.04;73.50;99656.23;126281;1284;114057;-72
2022/12/13 13:19:00;;;;;;;21.60;12.00;;;;;;;0.08;73.48;99660.83;126327;1290;112491;-73
2022/12/13 13:22:04;;;;;;;24.50;14.60;;;;;;;0.12;73.44;99663.71;126245;1281;112596;-73
2022/12/13 13:25:21;;;;;;;19.90;12.80;;;;;;;0.13;72.98;99662.24;125423;1294;1165204;-71
2022/12/13 13:28:24;;;;;;;21.10;12.90;;;;;;;0.12;73.27;99667.89;126479;1290;112305;-72
2022/12/13 13:31:47;;;;;;;25.10;14.90;;;;;;;0.16;73.28;99676.39;126279;1284;100509;-73
2022/12/13 13:34:52;;;;;;;24.10;14.00;;;;;;;0.13;72.94;99681.11;126279;1290;112618;-74
2022/12/13 13:37:59;;;;;;;73.30;39.50;;;;;;;0.02;72.31;99681.70;126246;1283;112516;-73
2022/12/13 13:41:39;;;;;;;38.20;20.50;;;;;;;-0.14;72.60;99681.13;126273;1286;112554;-72
2022/12/13 13:45:10;;;;;;;50.30;25.10;;;;;;;-0.23;72.57;99683.65;126208;1301;112531;-71
2022/12/13 13:48:25;;;;;;;35.20;18.70;;;;;;;-0.33;72.69;99686.56;126288;1289;112622;-71
2022/12/13 13:52:12;;;;;;;27.50;14.80;;;;;;;-0.45;72.15;99691.33;126287;1290;112552;-71
2022/12/13 13:55:38;;;;;;;33.60;16.60;;;;;;;-0.60;72.25;99689.84;126077;1294;112394;-71
2022/12/13 13:59:04;;;;;;;44.10;22.50;;;;;;;-0.69;72.51;99694.58;126275;1290;112587;-73
2022/12/13 14:02:34;;;;;;;38.70;19.60;;;;;;;-0.73;72.65;99691.52;126255;1293;113003;-71
2022/12/13 14:06:17;;;;;;;30.00;15.00;;;;;;;-0.82;72.56;99693.98;126182;1293;111677;-73
2022/12/13 14:09:56;;;;;;;20.80;12.10;;;;;;;-0.95;72.43;99688.64;126271;1283;111424;-72
2022/12/13 14:13:44;;;;;;;23.80;13.00;;;;;;;-1.06;72.43;99697.88;126510;1286;112635;-72